sensor_id;sensor_type;location;lat;lon;timestamp;pressure;altitude;pressure_sealevel;temperature
70831;BMP180;58451;51.550;7.208;2022-11-06T00:00:54;100857.80;;;8.80
70831;BMP180;58451;51.550;7.208;2022-11-06T00:02:29;100857.60;;;8.80
70831;BMP180;58451;51.550;7.208;2022-11-06T00:04:07;100858.00;;;8.80
70831;BMP180;58451;51.550;7.208;2022-11-06T00:05:41;100858.60;;;8.80
70831;BMP180;58451;51.550;7.208;2022-11-06T00:07:33;100856.40;;;8.80
70831;BMP180;58451;51.550;7.208;2022-11-06T00:09:09;100855.20;;;8.80
70831;BMP180;58451;51.550;7.208;2022-11-06T00:10:43;100855.20;;;8.80
70831;BMP180;58451;51.550;7.208;2022-11-06T00:12:15;100853.40;;;8.80
70831;BMP180;58451;51.550;7.208;2022-11-06T00:14:00;100855.60;;;8.80
70831;BMP180;58451;51.550;7.208;2022-11-06T00:15:32;100849.20;;;8.80
70831;BMP180;58451;51.550;7.208;2022-11-06T00:17:06;100847.80;;;8.80
70831;BMP180;58451;51.550;7.208;2022-11-06T00:18:40;100846.60;;;8.80
70831;BMP180;58451;51.550;7.208;2022-11-06T00:20:13;100848.60;;;8.80
70831;BMP180;58451;51.550;7.208;2022-11-06T00:21:45;100852.40;;;8.80
70831;BMP180;58451;51.550;7.208;2022-11-06T00:23:17;100854.20;;;8.72
70831;BMP180;58451;51.550;7.208;2022-11-06T00:24:48;100849.60;;;8.70
70831;BMP180;58451;51.550;7.208;2022-11-06T00:26:25;100852.40;;;8.70
70831;BMP180;58451;51.550;7.208;2022-11-06T00:27:58;100846.20;;;8.70
70831;BMP180;58451;51.550;7.208;2022-11-06T00:29:32;100843.20;;;8.64
70831;BMP180;58451;51.550;7.208;2022-11-06T00:31:15;100846.60;;;8.60
70831;BMP180;58451;51.550;7.208;2022-11-06T00:32:49;100842.40;;;8.60
70831;BMP180;58451;51.550;7.208;2022-11-06T00:34:37;100839.00;;;8.60
70831;BMP180;58451;51.550;7.208;2022-11-06T00:36:26;100841.00;;;8.50
70831;BMP180;58451;51.550;7.208;2022-11-06T00:38:03;100839.40;;;8.50
70831;BMP180;58451;51.550;7.208;2022-11-06T00:39:39;100843.40;;;8.50
70831;BMP180;58451;51.550;7.208;2022-11-06T00:41:15;100842.20;;;8.50
70831;BMP180;58451;51.550;7.208;2022-11-06T00:42:54;100835.20;;;8.50
70831;BMP180;58451;51.550;7.208;2022-11-06T00:44:28;100843.60;;;8.40
70831;BMP180;58451;51.550;7.208;2022-11-06T00:46:13;100845.40;;;8.40
70831;BMP180;58451;51.550;7.208;2022-11-06T00:47:45;100844.00;;;8.40
70831;BMP180;58451;51.550;7.208;2022-11-06T00:49:18;100846.60;;;8.40
70831;BMP180;58451;51.550;7.208;2022-11-06T00:50:52;100842.20;;;8.40
70831;BMP180;58451;51.550;7.208;2022-11-06T00:52:29;100837.60;;;8.40
70831;BMP180;58451;51.550;7.208;2022-11-06T00:54:09;100842.40;;;8.30
70831;BMP180;58451;51.550;7.208;2022-11-06T00:55:41;100837.60;;;8.30
70831;BMP180;58451;51.550;7.208;2022-11-06T00:57:14;100841.40;;;8.30
70831;BMP180;58451;51.550;7.208;2022-11-06T00:58:46;100849.00;;;8.30
70831;BMP180;58451;51.550;7.208;2022-11-06T01:00:19;100851.00;;;8.30
70831;BMP180;58451;51.550;7.208;2022-11-06T01:01:52;100854.80;;;8.30
70831;BMP180;58451;51.550;7.208;2022-11-06T01:03:24;100856.60;;;8.22
70831;BMP180;58451;51.550;7.208;2022-11-06T01:04:56;100855.80;;;8.20
70831;BMP180;58451;51.550;7.208;2022-11-06T01:06:34;100854.60;;;8.24
70831;BMP180;58451;51.550;7.208;2022-11-06T01:08:08;100843.20;;;8.20
70831;BMP180;58451;51.550;7.208;2022-11-06T01:09:40;100844.40;;;8.20
70831;BMP180;58451;51.550;7.208;2022-11-06T01:11:25;100843.20;;;8.20
70831;BMP180;58451;51.550;7.208;2022-11-06T01:13:00;100832.60;;;8.20
70831;BMP180;58451;51.550;7.208;2022-11-06T01:14:33;100841.40;;;8.20
70831;BMP180;58451;51.550;7.208;2022-11-06T01:16:09;100837.80;;;8.20
70831;BMP180;58451;51.550;7.208;2022-11-06T01:17:41;100834.40;;;8.20
70831;BMP180;58451;51.550;7.208;2022-11-06T01:19:15;100834.00;;;8.20
70831;BMP180;58451;51.550;7.208;2022-11-06T01:20:47;100828.20;;;8.16
70831;BMP180;58451;51.550;7.208;2022-11-06T01:22:20;100823.60;;;8.10
70831;BMP180;58451;51.550;7.208;2022-11-06T01:23:57;100820.00;;;8.10
70831;BMP180;58451;51.550;7.208;2022-11-06T01:25:30;100819.60;;;8.10
70831;BMP180;58451;51.550;7.208;2022-11-06T01:27:03;100813.40;;;8.10
70831;BMP180;58451;51.550;7.208;2022-11-06T01:28:57;100819.40;;;8.10
70831;BMP180;58451;51.550;7.208;2022-11-06T01:30:36;100814.20;;;8.10
70831;BMP180;58451;51.550;7.208;2022-11-06T01:32:09;100817.40;;;8.08
70831;BMP180;58451;51.550;7.208;2022-11-06T01:33:41;100815.40;;;8.10
70831;BMP180;58451;51.550;7.208;2022-11-06T01:35:14;100818.00;;;8.10
70831;BMP180;58451;51.550;7.208;2022-11-06T01:36:46;100811.40;;;8.08
70831;BMP180;58451;51.550;7.208;2022-11-06T01:38:18;100804.80;;;8.04
70831;BMP180;58451;51.550;7.208;2022-11-06T01:39:51;100800.00;;;8.02
70831;BMP180;58451;51.550;7.208;2022-11-06T01:41:34;100801.80;;;8.04
70831;BMP180;58451;51.550;7.208;2022-11-06T01:43:17;100798.00;;;8.02
70831;BMP180;58451;51.550;7.208;2022-11-06T01:45:34;100799.40;;;8.00
70831;BMP180;58451;51.550;7.208;2022-11-06T01:47:26;100797.20;;;8.00
70831;BMP180;58451;51.550;7.208;2022-11-06T01:49:09;100796.00;;;8.00
70831;BMP180;58451;51.550;7.208;2022-11-06T01:50:45;100796.60;;;8.00
70831;BMP180;58451;51.550;7.208;2022-11-06T01:52:20;100794.80;;;8.00
70831;BMP180;58451;51.550;7.208;2022-11-06T01:53:55;100796.00;;;8.00
70831;BMP180;58451;51.550;7.208;2022-11-06T01:55:41;100792.40;;;8.00
70831;BMP180;58451;51.550;7.208;2022-11-06T01:57:14;100785.80;;;8.00
70831;BMP180;58451;51.550;7.208;2022-11-06T01:58:50;100786.00;;;8.00
70831;BMP180;58451;51.550;7.208;2022-11-06T02:00:23;100776.00;;;8.00
70831;BMP180;58451;51.550;7.208;2022-11-06T02:01:55;100773.20;;;8.00
70831;BMP180;58451;51.550;7.208;2022-11-06T02:03:29;100769.20;;;8.00
70831;BMP180;58451;51.550;7.208;2022-11-06T02:05:01;100775.00;;;8.00
70831;BMP180;58451;51.550;7.208;2022-11-06T02:06:34;100770.40;;;8.00
70831;BMP180;58451;51.550;7.208;2022-11-06T02:08:12;100770.20;;;8.00
70831;BMP180;58451;51.550;7.208;2022-11-06T02:09:45;100768.60;;;8.00
70831;BMP180;58451;51.550;7.208;2022-11-06T02:11:17;100767.20;;;8.00
70831;BMP180;58451;51.550;7.208;2022-11-06T02:13:09;100758.00;;;8.00
70831;BMP180;58451;51.550;7.208;2022-11-06T02:17:12;100757.20;;;8.00
70831;BMP180;58451;51.550;7.208;2022-11-06T02:27:29;100763.60;;;7.90
70831;BMP180;58451;51.550;7.208;2022-11-06T02:29:32;100764.80;;;7.90
70831;BMP180;58451;51.550;7.208;2022-11-06T02:31:17;100763.40;;;7.90
70831;BMP180;58451;51.550;7.208;2022-11-06T02:32:58;100762.20;;;7.96
70831;BMP180;58451;51.550;7.208;2022-11-06T02:34:35;100757.80;;;8.00
70831;BMP180;58451;51.550;7.208;2022-11-06T02:36:18;100756.40;;;8.00
70831;BMP180;58451;51.550;7.208;2022-11-06T02:38:00;100756.00;;;8.00
70831;BMP180;58451;51.550;7.208;2022-11-06T02:39:37;100751.40;;;8.00
70831;BMP180;58451;51.550;7.208;2022-11-06T02:41:21;100754.00;;;8.06
70831;BMP180;58451;51.550;7.208;2022-11-06T02:42:58;100751.80;;;8.10
70831;BMP180;58451;51.550;7.208;2022-11-06T02:44:38;100748.60;;;8.10
70831;BMP180;58451;51.550;7.208;2022-11-06T02:46:17;100740.40;;;8.10
70831;BMP180;58451;51.550;7.208;2022-11-06T02:47:53;100741.40;;;8.10
70831;BMP180;58451;51.550;7.208;2022-11-06T02:49:41;100741.60;;;8.10
70831;BMP180;58451;51.550;7.208;2022-11-06T02:51:20;100739.20;;;8.10
70831;BMP180;58451;51.550;7.208;2022-11-06T02:53:03;100743.40;;;8.02
70831;BMP180;58451;51.550;7.208;2022-11-06T02:54:41;100738.20;;;8.00
70831;BMP180;58451;51.550;7.208;2022-11-06T02:56:18;100746.60;;;8.00
70831;BMP180;58451;51.550;7.208;2022-11-06T02:58:00;100737.80;;;8.00
70831;BMP180;58451;51.550;7.208;2022-11-06T03:00:04;100740.40;;;8.00
70831;BMP180;58451;51.550;7.208;2022-11-06T03:01:56;100734.60;;;8.00
70831;BMP180;58451;51.550;7.208;2022-11-06T03:03:33;100735.40;;;8.00
70831;BMP180;58451;51.550;7.208;2022-11-06T03:08:52;100725.00;;;7.92
70831;BMP180;58451;51.550;7.208;2022-11-06T03:10:32;100727.00;;;8.00
70831;BMP180;58451;51.550;7.208;2022-11-06T03:12:25;100726.80;;;8.00
70831;BMP180;58451;51.550;7.208;2022-11-06T03:14:20;100722.80;;;7.98
70831;BMP180;58451;51.550;7.208;2022-11-06T03:18:47;100712.80;;;7.94
70831;BMP180;58451;51.550;7.208;2022-11-06T03:20:39;100714.40;;;7.90
70831;BMP180;58451;51.550;7.208;2022-11-06T03:22:39;100713.40;;;7.90
70831;BMP180;58451;51.550;7.208;2022-11-06T03:24:20;100714.20;;;7.90
70831;BMP180;58451;51.550;7.208;2022-11-06T03:26:29;100718.00;;;7.90
70831;BMP180;58451;51.550;7.208;2022-11-06T03:28:32;100712.00;;;7.90
70831;BMP180;58451;51.550;7.208;2022-11-06T03:30:09;100712.40;;;7.90
70831;BMP180;58451;51.550;7.208;2022-11-06T03:32:19;100720.20;;;7.90
70831;BMP180;58451;51.550;7.208;2022-11-06T03:34:01;100726.00;;;7.90
70831;BMP180;58451;51.550;7.208;2022-11-06T03:35:43;100719.60;;;7.90
70831;BMP180;58451;51.550;7.208;2022-11-06T03:37:27;100715.60;;;7.90
70831;BMP180;58451;51.550;7.208;2022-11-06T03:39:07;100703.00;;;7.90
70831;BMP180;58451;51.550;7.208;2022-11-06T03:40:46;100709.20;;;7.90
70831;BMP180;58451;51.550;7.208;2022-11-06T03:42:29;100707.40;;;7.90
70831;BMP180;58451;51.550;7.208;2022-11-06T03:44:05;100705.40;;;7.90
70831;BMP180;58451;51.550;7.208;2022-11-06T03:45:41;100703.60;;;7.90
70831;BMP180;58451;51.550;7.208;2022-11-06T03:47:33;100696.60;;;7.90
70831;BMP180;58451;51.550;7.208;2022-11-06T03:49:20;100702.00;;;7.90
70831;BMP180;58451;51.550;7.208;2022-11-06T03:51:15;100706.20;;;7.90
70831;BMP180;58451;51.550;7.208;2022-11-06T03:52:56;100714.00;;;7.92
70831;BMP180;58451;51.550;7.208;2022-11-06T03:54:41;100710.40;;;7.98
70831;BMP180;58451;51.550;7.208;2022-11-06T03:56:27;100712.40;;;8.00
70831;BMP180;58451;51.550;7.208;2022-11-06T03:58:13;100708.00;;;8.00
70831;BMP180;58451;51.550;7.208;2022-11-06T03:59:54;100713.20;;;8.00
70831;BMP180;58451;51.550;7.208;2022-11-06T04:01:35;100711.00;;;8.00
70831;BMP180;58451;51.550;7.208;2022-11-06T04:03:30;100724.60;;;8.06
70831;BMP180;58451;51.550;7.208;2022-11-06T04:05:09;100723.80;;;8.00
70831;BMP180;58451;51.550;7.208;2022-11-06T04:06:52;100722.20;;;8.02
70831;BMP180;58451;51.550;7.208;2022-11-06T04:08:29;100722.20;;;8.04
70831;BMP180;58451;51.550;7.208;2022-11-06T04:10:21;100729.80;;;8.00
70831;BMP180;58451;51.550;7.208;2022-11-06T04:12:17;100733.60;;;8.10
70831;BMP180;58451;51.550;7.208;2022-11-06T04:14:13;100726.40;;;8.02
70831;BMP180;58451;51.550;7.208;2022-11-06T04:15:54;100724.40;;;8.00
70831;BMP180;58451;51.550;7.208;2022-11-06T04:17:31;100722.60;;;8.00
70831;BMP180;58451;51.550;7.208;2022-11-06T04:19:17;100726.00;;;8.00
70831;BMP180;58451;51.550;7.208;2022-11-06T04:21:50;100727.40;;;8.04
70831;BMP180;58451;51.550;7.208;2022-11-06T04:23:19;100716.80;;;8.10
70831;BMP180;58451;51.550;7.208;2022-11-06T04:29:39;100711.40;;;8.10
70831;BMP180;58451;51.550;7.208;2022-11-06T04:33:42;100716.60;;;8.00
70831;BMP180;58451;51.550;7.208;2022-11-06T04:39:55;100702.60;;;8.00
70831;BMP180;58451;51.550;7.208;2022-11-06T04:43:20;100710.20;;;8.00
70831;BMP180;58451;51.550;7.208;2022-11-06T04:45:05;100701.60;;;8.00
70831;BMP180;58451;51.550;7.208;2022-11-06T04:47:05;100699.20;;;8.00
70831;BMP180;58451;51.550;7.208;2022-11-06T04:48:39;100695.00;;;8.00
70831;BMP180;58451;51.550;7.208;2022-11-06T04:50:17;100695.20;;;8.00
70831;BMP180;58451;51.550;7.208;2022-11-06T04:51:52;100691.60;;;8.00
70831;BMP180;58451;51.550;7.208;2022-11-06T04:53:28;100685.60;;;7.98
70831;BMP180;58451;51.550;7.208;2022-11-06T04:55:03;100680.60;;;7.96
70831;BMP180;58451;51.550;7.208;2022-11-06T04:56:37;100686.20;;;7.90
70831;BMP180;58451;51.550;7.208;2022-11-06T04:58:16;100682.40;;;7.90
70831;BMP180;58451;51.550;7.208;2022-11-06T04:59:48;100676.40;;;7.90
70831;BMP180;58451;51.550;7.208;2022-11-06T05:01:20;100683.80;;;7.90
70831;BMP180;58451;51.550;7.208;2022-11-06T05:02:52;100682.60;;;7.86
70831;BMP180;58451;51.550;7.208;2022-11-06T05:04:27;100686.40;;;7.88
70831;BMP180;58451;51.550;7.208;2022-11-06T05:05:59;100678.80;;;7.80
70831;BMP180;58451;51.550;7.208;2022-11-06T05:07:34;100679.60;;;7.80
70831;BMP180;58451;51.550;7.208;2022-11-06T05:09:05;100675.40;;;7.80
70831;BMP180;58451;51.550;7.208;2022-11-06T05:10:38;100666.40;;;7.80
70831;BMP180;58451;51.550;7.208;2022-11-06T05:12:11;100669.60;;;7.80
70831;BMP180;58451;51.550;7.208;2022-11-06T05:13:43;100660.00;;;7.80
70831;BMP180;58451;51.550;7.208;2022-11-06T05:15:15;100654.80;;;7.80
70831;BMP180;58451;51.550;7.208;2022-11-06T05:16:47;100654.20;;;7.80
70831;BMP180;58451;51.550;7.208;2022-11-06T05:18:24;100648.00;;;7.80
70831;BMP180;58451;51.550;7.208;2022-11-06T05:19:57;100644.80;;;7.80
70831;BMP180;58451;51.550;7.208;2022-11-06T05:21:31;100645.60;;;7.86
70831;BMP180;58451;51.550;7.208;2022-11-06T05:23:25;100636.60;;;7.90
70831;BMP180;58451;51.550;7.208;2022-11-06T05:24:57;100637.00;;;7.90
70831;BMP180;58451;51.550;7.208;2022-11-06T05:26:29;100637.20;;;7.88
70831;BMP180;58451;51.550;7.208;2022-11-06T05:28:04;100633.00;;;7.80
70831;BMP180;58451;51.550;7.208;2022-11-06T05:29:37;100629.20;;;7.80
70831;BMP180;58451;51.550;7.208;2022-11-06T05:31:09;100630.40;;;7.80
70831;BMP180;58451;51.550;7.208;2022-11-06T05:32:42;100630.20;;;7.80
70831;BMP180;58451;51.550;7.208;2022-11-06T05:34:14;100627.60;;;7.80
70831;BMP180;58451;51.550;7.208;2022-11-06T05:35:46;100624.00;;;7.80
70831;BMP180;58451;51.550;7.208;2022-11-06T05:37:18;100630.40;;;7.80
70831;BMP180;58451;51.550;7.208;2022-11-06T05:38:51;100637.40;;;7.80
70831;BMP180;58451;51.550;7.208;2022-11-06T05:40:24;100632.40;;;7.78
70831;BMP180;58451;51.550;7.208;2022-11-06T05:41:59;100631.80;;;7.70
70831;BMP180;58451;51.550;7.208;2022-11-06T05:43:32;100633.20;;;7.70
70831;BMP180;58451;51.550;7.208;2022-11-06T05:45:10;100627.40;;;7.70
70831;BMP180;58451;51.550;7.208;2022-11-06T05:46:42;100627.20;;;7.70
70831;BMP180;58451;51.550;7.208;2022-11-06T05:48:20;100626.00;;;7.70
70831;BMP180;58451;51.550;7.208;2022-11-06T05:49:52;100624.20;;;7.64
70831;BMP180;58451;51.550;7.208;2022-11-06T05:51:28;100621.00;;;7.60
70831;BMP180;58451;51.550;7.208;2022-11-06T05:53:01;100625.60;;;7.60
70831;BMP180;58451;51.550;7.208;2022-11-06T05:54:33;100621.20;;;7.60
70831;BMP180;58451;51.550;7.208;2022-11-06T05:56:06;100618.60;;;7.60
70831;BMP180;58451;51.550;7.208;2022-11-06T05:57:40;100620.20;;;7.54
70831;BMP180;58451;51.550;7.208;2022-11-06T05:59:14;100619.20;;;7.50
70831;BMP180;58451;51.550;7.208;2022-11-06T06:00:47;100618.80;;;7.50
70831;BMP180;58451;51.550;7.208;2022-11-06T06:02:19;100619.80;;;7.50
70831;BMP180;58451;51.550;7.208;2022-11-06T06:03:52;100615.20;;;7.50
70831;BMP180;58451;51.550;7.208;2022-11-06T06:05:24;100608.00;;;7.50
70831;BMP180;58451;51.550;7.208;2022-11-06T06:06:57;100601.80;;;7.50
70831;BMP180;58451;51.550;7.208;2022-11-06T06:08:29;100601.40;;;7.42
70831;BMP180;58451;51.550;7.208;2022-11-06T06:10:03;100605.20;;;7.40
70831;BMP180;58451;51.550;7.208;2022-11-06T06:11:50;100602.40;;;7.40
70831;BMP180;58451;51.550;7.208;2022-11-06T06:13:25;100597.40;;;7.40
70831;BMP180;58451;51.550;7.208;2022-11-06T06:14:57;100593.20;;;7.40
70831;BMP180;58451;51.550;7.208;2022-11-06T06:16:30;100590.40;;;7.40
70831;BMP180;58451;51.550;7.208;2022-11-06T06:18:02;100588.80;;;7.40
70831;BMP180;58451;51.550;7.208;2022-11-06T06:19:34;100590.40;;;7.40
70831;BMP180;58451;51.550;7.208;2022-11-06T06:21:06;100584.60;;;7.40
70831;BMP180;58451;51.550;7.208;2022-11-06T06:22:39;100594.00;;;7.40
70831;BMP180;58451;51.550;7.208;2022-11-06T06:24:12;100598.00;;;7.40
70831;BMP180;58451;51.550;7.208;2022-11-06T06:25:44;100599.20;;;7.40
70831;BMP180;58451;51.550;7.208;2022-11-06T06:27:16;100592.60;;;7.40
70831;BMP180;58451;51.550;7.208;2022-11-06T06:28:49;100596.60;;;7.40
70831;BMP180;58451;51.550;7.208;2022-11-06T06:30:22;100597.80;;;7.40
70831;BMP180;58451;51.550;7.208;2022-11-06T06:31:54;100599.20;;;7.40
70831;BMP180;58451;51.550;7.208;2022-11-06T06:33:25;100599.20;;;7.40
70831;BMP180;58451;51.550;7.208;2022-11-06T06:34:58;100595.40;;;7.40
70831;BMP180;58451;51.550;7.208;2022-11-06T06:36:32;100594.20;;;7.40
70831;BMP180;58451;51.550;7.208;2022-11-06T06:38:06;100589.40;;;7.40
70831;BMP180;58451;51.550;7.208;2022-11-06T06:39:42;100594.60;;;7.40
70831;BMP180;58451;51.550;7.208;2022-11-06T06:41:16;100592.00;;;7.40
70831;BMP180;58451;51.550;7.208;2022-11-06T06:42:50;100591.40;;;7.40
70831;BMP180;58451;51.550;7.208;2022-11-06T06:44:23;100590.80;;;7.40
70831;BMP180;58451;51.550;7.208;2022-11-06T06:46:04;100582.20;;;7.40
70831;BMP180;58451;51.550;7.208;2022-11-06T06:47:39;100582.60;;;7.40
70831;BMP180;58451;51.550;7.208;2022-11-06T06:49:11;100584.00;;;7.42
70831;BMP180;58451;51.550;7.208;2022-11-06T06:50:43;100587.60;;;7.50
70831;BMP180;58451;51.550;7.208;2022-11-06T06:52:15;100583.60;;;7.50
70831;BMP180;58451;51.550;7.208;2022-11-06T06:53:47;100584.40;;;7.52
70831;BMP180;58451;51.550;7.208;2022-11-06T06:55:20;100584.20;;;7.50
70831;BMP180;58451;51.550;7.208;2022-11-06T06:56:55;100581.60;;;7.52
70831;BMP180;58451;51.550;7.208;2022-11-06T06:58:29;100589.80;;;7.60
70831;BMP180;58451;51.550;7.208;2022-11-06T07:00:00;100583.40;;;7.58
70831;BMP180;58451;51.550;7.208;2022-11-06T07:01:32;100588.20;;;7.60
70831;BMP180;58451;51.550;7.208;2022-11-06T07:03:07;100584.80;;;7.60
70831;BMP180;58451;51.550;7.208;2022-11-06T07:04:40;100588.40;;;7.60
70831;BMP180;58451;51.550;7.208;2022-11-06T07:06:13;100590.80;;;7.62
70831;BMP180;58451;51.550;7.208;2022-11-06T07:07:46;100597.00;;;7.70
70831;BMP180;58451;51.550;7.208;2022-11-06T07:09:21;100602.20;;;7.70
70831;BMP180;58451;51.550;7.208;2022-11-06T07:11:05;100601.00;;;7.70
70831;BMP180;58451;51.550;7.208;2022-11-06T07:12:38;100597.20;;;7.74
70831;BMP180;58451;51.550;7.208;2022-11-06T07:14:12;100597.20;;;7.80
70831;BMP180;58451;51.550;7.208;2022-11-06T07:15:44;100592.80;;;7.80
70831;BMP180;58451;51.550;7.208;2022-11-06T07:17:16;100594.60;;;7.80
70831;BMP180;58451;51.550;7.208;2022-11-06T07:18:50;100594.20;;;7.90
70831;BMP180;58451;51.550;7.208;2022-11-06T07:20:22;100595.60;;;7.90
70831;BMP180;58451;51.550;7.208;2022-11-06T07:21:54;100593.40;;;7.90
70831;BMP180;58451;51.550;7.208;2022-11-06T07:23:30;100600.20;;;8.00
70831;BMP180;58451;51.550;7.208;2022-11-06T07:25:04;100592.40;;;8.00
70831;BMP180;58451;51.550;7.208;2022-11-06T07:26:40;100591.60;;;8.00
70831;BMP180;58451;51.550;7.208;2022-11-06T07:28:12;100598.40;;;8.10
70831;BMP180;58451;51.550;7.208;2022-11-06T07:29:50;100596.20;;;8.10
70831;BMP180;58451;51.550;7.208;2022-11-06T07:31:23;100594.80;;;8.12
70831;BMP180;58451;51.550;7.208;2022-11-06T07:33:03;100591.00;;;8.20
70831;BMP180;58451;51.550;7.208;2022-11-06T07:34:37;100594.00;;;8.20
70831;BMP180;58451;51.550;7.208;2022-11-06T07:36:12;100597.80;;;8.24
70831;BMP180;58451;51.550;7.208;2022-11-06T07:37:47;100600.60;;;8.30
70831;BMP180;58451;51.550;7.208;2022-11-06T07:39:19;100607.80;;;8.30
70831;BMP180;58451;51.550;7.208;2022-11-06T07:40:52;100610.60;;;8.40
70831;BMP180;58451;51.550;7.208;2022-11-06T07:42:24;100608.60;;;8.42
70831;BMP180;58451;51.550;7.208;2022-11-06T07:44:01;100603.20;;;8.50
70831;BMP180;58451;51.550;7.208;2022-11-06T07:45:33;100609.00;;;8.50
70831;BMP180;58451;51.550;7.208;2022-11-06T07:47:05;100609.00;;;8.60
70831;BMP180;58451;51.550;7.208;2022-11-06T07:48:40;100605.40;;;8.64
70831;BMP180;58451;51.550;7.208;2022-11-06T07:50:12;100605.40;;;8.70
70831;BMP180;58451;51.550;7.208;2022-11-06T07:51:44;100606.40;;;8.74
70831;BMP180;58451;51.550;7.208;2022-11-06T07:53:16;100604.60;;;8.80
70831;BMP180;58451;51.550;7.208;2022-11-06T07:54:53;100600.80;;;8.84
70831;BMP180;58451;51.550;7.208;2022-11-06T07:56:25;100604.60;;;8.90
70831;BMP180;58451;51.550;7.208;2022-11-06T07:57:58;100601.20;;;8.90
70831;BMP180;58451;51.550;7.208;2022-11-06T07:59:32;100596.80;;;9.00
70831;BMP180;58451;51.550;7.208;2022-11-06T08:01:10;100583.60;;;9.00
70831;BMP180;58451;51.550;7.208;2022-11-06T08:02:51;100581.60;;;9.00
70831;BMP180;58451;51.550;7.208;2022-11-06T08:04:25;100587.40;;;9.10
70831;BMP180;58451;51.550;7.208;2022-11-06T08:06:08;100587.60;;;9.10
70831;BMP180;58451;51.550;7.208;2022-11-06T08:07:42;100584.00;;;9.20
70831;BMP180;58451;51.550;7.208;2022-11-06T08:09:17;100579.80;;;9.20
70831;BMP180;58451;51.550;7.208;2022-11-06T08:10:50;100574.40;;;9.30
70831;BMP180;58451;51.550;7.208;2022-11-06T08:12:27;100575.80;;;9.40
70831;BMP180;58451;51.550;7.208;2022-11-06T08:14:01;100582.00;;;9.40
70831;BMP180;58451;51.550;7.208;2022-11-06T08:15:36;100586.00;;;9.50
70831;BMP180;58451;51.550;7.208;2022-11-06T08:17:10;100587.60;;;9.60
70831;BMP180;58451;51.550;7.208;2022-11-06T08:18:43;100591.20;;;9.78
70831;BMP180;58451;51.550;7.208;2022-11-06T08:20:15;100588.20;;;9.80
70831;BMP180;58451;51.550;7.208;2022-11-06T08:21:48;100588.80;;;9.90
70831;BMP180;58451;51.550;7.208;2022-11-06T08:23:21;100583.20;;;10.00
70831;BMP180;58451;51.550;7.208;2022-11-06T08:25:22;100586.40;;;10.02
70831;BMP180;58451;51.550;7.208;2022-11-06T08:26:54;100584.40;;;10.10
70831;BMP180;58451;51.550;7.208;2022-11-06T08:28:27;100584.00;;;10.10
70831;BMP180;58451;51.550;7.208;2022-11-06T08:30:00;100579.40;;;10.10
70831;BMP180;58451;51.550;7.208;2022-11-06T08:31:35;100579.40;;;10.10
70831;BMP180;58451;51.550;7.208;2022-11-06T08:33:07;100577.20;;;10.10
70831;BMP180;58451;51.550;7.208;2022-11-06T08:34:41;100580.40;;;10.08
70831;BMP180;58451;51.550;7.208;2022-11-06T08:36:15;100576.00;;;10.10
70831;BMP180;58451;51.550;7.208;2022-11-06T08:37:48;100577.60;;;10.10
70831;BMP180;58451;51.550;7.208;2022-11-06T08:39:58;100574.00;;;10.10
70831;BMP180;58451;51.550;7.208;2022-11-06T08:41:30;100564.00;;;10.20
70831;BMP180;58451;51.550;7.208;2022-11-06T08:43:08;100567.80;;;10.20
70831;BMP180;58451;51.550;7.208;2022-11-06T08:44:41;100565.20;;;10.30
70831;BMP180;58451;51.550;7.208;2022-11-06T08:46:20;100567.00;;;10.30
70831;BMP180;58451;51.550;7.208;2022-11-06T08:47:52;100561.20;;;10.40
70831;BMP180;58451;51.550;7.208;2022-11-06T08:49:24;100560.00;;;10.42
70831;BMP180;58451;51.550;7.208;2022-11-06T08:50:57;100553.00;;;10.50
70831;BMP180;58451;51.550;7.208;2022-11-06T08:52:29;100550.20;;;10.60
70831;BMP180;58451;51.550;7.208;2022-11-06T08:54:04;100547.20;;;10.60
70831;BMP180;58451;51.550;7.208;2022-11-06T08:55:38;100552.60;;;10.70
70831;BMP180;58451;51.550;7.208;2022-11-06T08:57:11;100545.60;;;10.70
70831;BMP180;58451;51.550;7.208;2022-11-06T08:58:42;100549.40;;;10.80
70831;BMP180;58451;51.550;7.208;2022-11-06T09:00:15;100537.80;;;10.90
70831;BMP180;58451;51.550;7.208;2022-11-06T09:01:53;100543.00;;;11.00
70831;BMP180;58451;51.550;7.208;2022-11-06T09:03:49;100543.60;;;11.06
70831;BMP180;58451;51.550;7.208;2022-11-06T09:05:23;100542.00;;;11.18
70831;BMP180;58451;51.550;7.208;2022-11-06T09:07:08;100535.80;;;11.30
70831;BMP180;58451;51.550;7.208;2022-11-06T09:08:41;100527.20;;;11.30
70831;BMP180;58451;51.550;7.208;2022-11-06T09:10:21;100526.20;;;11.50
70831;BMP180;58451;51.550;7.208;2022-11-06T09:12:08;100527.20;;;11.60
70831;BMP180;58451;51.550;7.208;2022-11-06T09:13:43;100525.00;;;11.70
70831;BMP180;58451;51.550;7.208;2022-11-06T09:15:15;100520.00;;;11.80
70831;BMP180;58451;51.550;7.208;2022-11-06T09:16:48;100520.60;;;11.90
70831;BMP180;58451;51.550;7.208;2022-11-06T09:18:25;100524.80;;;12.10
70831;BMP180;58451;51.550;7.208;2022-11-06T09:20:08;100524.00;;;12.20
70831;BMP180;58451;51.550;7.208;2022-11-06T09:21:47;100522.20;;;12.20
70831;BMP180;58451;51.550;7.208;2022-11-06T09:23:25;100524.00;;;12.24
70831;BMP180;58451;51.550;7.208;2022-11-06T09:25:05;100531.80;;;12.30
70831;BMP180;58451;51.550;7.208;2022-11-06T09:26:39;100535.20;;;12.30
70831;BMP180;58451;51.550;7.208;2022-11-06T09:28:13;100531.60;;;12.30
70831;BMP180;58451;51.550;7.208;2022-11-06T09:30:36;100532.20;;;12.30
70831;BMP180;58451;51.550;7.208;2022-11-06T09:32:14;100525.00;;;12.30
70831;BMP180;58451;51.550;7.208;2022-11-06T09:34:08;100524.60;;;12.30
70831;BMP180;58451;51.550;7.208;2022-11-06T09:35:40;100515.60;;;12.30
70831;BMP180;58451;51.550;7.208;2022-11-06T09:37:12;100518.20;;;12.30
70831;BMP180;58451;51.550;7.208;2022-11-06T09:38:48;100513.00;;;12.30
70831;BMP180;58451;51.550;7.208;2022-11-06T09:40:33;100512.40;;;12.30
70831;BMP180;58451;51.550;7.208;2022-11-06T09:42:28;100508.40;;;12.40
70831;BMP180;58451;51.550;7.208;2022-11-06T09:46:27;100500.40;;;12.40
70831;BMP180;58451;51.550;7.208;2022-11-06T09:49:54;100494.40;;;12.56
70831;BMP180;58451;51.550;7.208;2022-11-06T09:53:43;100494.00;;;12.66
70831;BMP180;58451;51.550;7.208;2022-11-06T09:55:32;100488.40;;;12.64
70831;BMP180;58451;51.550;7.208;2022-11-06T09:59:12;100487.80;;;12.64
70831;BMP180;58451;51.550;7.208;2022-11-06T10:00:53;100483.20;;;12.70